Time;durP1;ratioP1;P1;durP2;ratioP2;P2;SDS_P1;SDS_P2;PMS_P1;PMS_P2;Temp;Humidity;BMP_temperature;BMP_pressure;BME280_temperature;BME280_humidity;BME280_pressure;Samples;Min_cycle;Max_cycle;Signal;HPM_P1;HPM_P2
2022/07/05 00:00:09;;;;;;;16.97;16.37;;;22.00;24.10;;;;;;6273470;22;20489;-70
2022/07/05 00:02:34;;;;;;;17.83;17.10;;;22.10;23.80;;;;;;6299046;22;20233;-70
2022/07/05 00:05:00;;;;;;;17.87;17.07;;;21.60;24.70;;;;;;6273688;22;20424;-70
2022/07/05 00:07:26;;;;;;;17.90;17.17;;;21.20;25.40;;;;;;6273660;22;20224;-70
2022/07/05 00:09:54;;;;;;;17.80;17.10;;;21.10;25.30;;;;;;6273547;22;20600;-70
2022/07/05 00:12:22;;;;;;;17.97;17.17;;;20.90;25.90;;;;;;6273668;22;20591;-70
2022/07/05 00:14:48;;;;;;;18.37;17.67;;;21.10;25.70;;;;;;6273767;22;20378;-70
2022/07/05 00:17:14;;;;;;;18.20;17.50;;;21.30;25.40;;;;;;6273509;22;20389;-70
2022/07/05 00:19:41;;;;;;;17.47;16.87;;;21.30;25.30;;;;;;6274513;22;20431;-70
2022/07/05 00:22:07;;;;;;;17.40;16.80;;;21.40;24.80;;;;;;6275208;22;20873;-70
2022/07/05 00:24:33;;;;;;;17.73;17.00;;;21.50;24.70;;;;;;6275667;22;20728;-70
2022/07/05 00:26:59;;;;;;;18.10;17.30;;;21.50;24.70;;;;;;6275581;22;20806;-70
2022/07/05 00:29:27;;;;;;;17.83;17.13;;;21.50;24.60;;;;;;6275442;22;20405;-70
2022/07/05 00:31:53;;;;;;;17.70;17.10;;;21.50;24.50;;;;;;6275347;22;20189;-70
2022/07/05 00:34:19;;;;;;;18.10;17.40;;;21.60;24.20;;;;;;6275434;22;20377;-70
2022/07/05 00:36:45;;;;;;;17.90;17.20;;;21.60;23.90;;;;;;6275891;22;20155;-70
2022/07/05 00:39:10;;;;;;;17.50;16.90;;;21.60;23.80;;;;;;6275424;22;20205;-70
2022/07/05 00:41:37;;;;;;;17.90;17.20;;;21.50;24.10;;;;;;6275289;22;20154;-70
2022/07/05 00:44:08;;;;;;;17.53;16.83;;;21.50;23.90;;;;;;6275436;22;20385;-70
2022/07/05 00:46:35;;;;;;;17.70;16.80;;;21.60;23.50;;;;;;6275347;22;20676;-70
2022/07/05 00:49:02;;;;;;;17.63;16.93;;;21.60;23.50;;;;;;6275364;22;20397;-70
2022/07/05 00:51:30;;;;;;;17.77;17.07;;;21.50;23.80;;;;;;6275145;22;20458;-70
2022/07/05 00:53:56;;;;;;;17.70;17.00;;;21.40;24.40;;;;;;6275338;22;20472;-70
2022/07/05 00:56:24;;;;;;;17.97;17.37;;;21.40;24.70;;;;;;6275267;22;20445;-70
2022/07/05 00:58:50;;;;;;;18.33;17.33;;;21.50;24.60;;;;;;6275341;22;20392;-70
2022/07/05 01:01:17;;;;;;;17.77;17.07;;;21.50;24.40;;;;;;6274983;22;20380;-70
2022/07/05 01:03:43;;;;;;;17.60;17.00;;;21.60;24.30;;;;;;6275314;22;20434;-70
2022/07/05 01:06:10;;;;;;;17.10;16.50;;;21.60;24.20;;;;;;6275136;22;20695;-70
2022/07/05 01:08:40;;;;;;;17.60;16.90;;;21.60;24.20;;;;;;6275232;22;20421;-70
2022/07/05 01:11:07;;;;;;;17.80;17.10;;;21.50;24.10;;;;;;6274899;22;20380;-70
2022/07/05 01:13:34;;;;;;;17.43;16.70;;;21.50;24.00;;;;;;6275171;22;20871;-70
2022/07/05 01:16:01;;;;;;;17.53;16.87;;;21.50;24.40;;;;;;6275085;22;20461;-70
2022/07/05 01:18:27;;;;;;;17.97;17.37;;;21.40;24.40;;;;;;6275100;22;20385;-70
2022/07/05 01:20:53;;;;;;;17.53;16.53;;;21.40;24.60;;;;;;6274936;22;20377;-70
2022/07/05 01:23:19;;;;;;;18.00;17.30;;;21.40;24.80;;;;;;6275015;22;20440;-70
2022/07/05 01:25:47;;;;;;;17.90;17.20;;;21.40;24.80;;;;;;6275122;22;20468;-70
2022/07/05 01:28:13;;;;;;;18.70;17.80;;;21.30;24.90;;;;;;6274724;22;20520;-70
2022/07/05 01:30:39;;;;;;;18.40;17.50;;;21.20;25.50;;;;;;6274548;22;20373;-70
2022/07/05 01:33:07;;;;;;;17.60;17.00;;;21.20;25.00;;;;;;6275020;22;20718;-70
2022/07/05 01:35:33;;;;;;;16.73;15.80;;;21.30;24.50;;;;;;6274967;22;20381;-70
2022/07/05 01:41:21;;;;;;;16.93;16.33;;;21.40;24.10;;;;;;6276597;22;20369;-70
2022/07/05 01:43:47;;;;;;;16.93;16.33;;;21.20;23.90;;;;;;6275208;22;20386;-70
2022/07/05 01:46:16;;;;;;;17.10;16.40;;;21.10;23.90;;;;;;6276379;22;20153;-70
2022/07/05 01:48:41;;;;;;;17.30;16.70;;;21.20;23.70;;;;;;6274822;22;20187;-70
2022/07/05 01:51:18;;;;;;;16.87;16.13;;;21.20;23.90;;;;;;6274524;22;20405;-70
2022/07/05 01:53:46;;;;;;;17.60;17.00;;;21.10;24.80;;;;;;6275407;22;20142;-73
2022/07/05 01:56:12;;;;;;;17.60;17.00;;;21.00;25.20;;;;;;6274701;22;20369;-73
2022/07/05 01:58:39;;;;;;;17.40;16.80;;;21.00;25.40;;;;;;6274798;22;20388;-73
2022/07/05 02:01:04;;;;;;;17.67;17.00;;;21.10;25.30;;;;;;6275576;22;20154;-73
2022/07/05 02:03:31;;;;;;;17.47;16.87;;;21.10;24.90;;;;;;6275556;22;20835;-73
2022/07/05 02:05:56;;;;;;;18.17;17.07;;;21.20;24.50;;;;;;6274652;22;20157;-73
2022/07/05 02:08:29;;;;;;;17.20;16.43;;;21.20;24.40;;;;;;6274633;22;20453;-73
2022/07/05 02:10:54;;;;;;;18.20;17.07;;;21.20;24.40;;;;;;6274315;22;20155;-73
2022/07/05 02:13:21;;;;;;;18.47;17.57;;;21.20;24.50;;;;;;6274491;22;20784;-73
2022/07/05 02:15:47;;;;;;;17.83;17.13;;;21.20;24.60;;;;;;6274703;22;20323;-74
2022/07/05 02:18:12;;;;;;;18.20;17.10;;;21.10;24.80;;;;;;6274494;22;20496;-73
2022/07/05 02:20:39;;;;;;;18.20;17.40;;;21.10;24.70;;;;;;6274301;22;20158;-74
2022/07/05 02:23:05;;;;;;;18.30;17.70;;;21.10;24.80;;;;;;6274544;22;20191;-73
2022/07/05 02:25:31;;;;;;;18.77;17.73;;;21.00;25.20;;;;;;6274572;22;20514;-73
2022/07/05 02:27:57;;;;;;;18.03;17.43;;;21.00;25.10;;;;;;6274171;22;20611;-74
2022/07/05 02:30:22;;;;;;;17.83;17.13;;;21.00;25.50;;;;;;6274306;22;20147;-73
2022/07/05 02:32:48;;;;;;;18.27;17.47;;;21.00;25.70;;;;;;6274433;22;20385;-74
2022/07/05 02:35:14;;;;;;;18.60;17.90;;;20.90;25.90;;;;;;6274414;22;20587;-73
2022/07/05 02:37:40;;;;;;;18.40;17.60;;;20.90;25.70;;;;;;6274299;22;20151;-73
2022/07/05 02:40:10;;;;;;;18.90;18.10;;;20.80;26.00;;;;;;6275721;22;20151;-74
2022/07/05 02:42:36;;;;;;;18.10;17.20;;;20.80;26.10;;;;;;6273878;22;20284;-74
2022/07/05 02:45:03;;;;;;;18.50;17.70;;;20.80;26.00;;;;;;6274246;22;20377;-74
2022/07/05 02:47:32;;;;;;;18.50;17.80;;;20.90;25.90;;;;;;6274185;22;20439;-73
2022/07/05 02:49:58;;;;;;;18.73;18.03;;;20.90;26.10;;;;;;6274057;22;20548;-73
2022/07/05 02:52:24;;;;;;;18.73;17.97;;;21.00;25.90;;;;;;6274260;22;20837;-73
2022/07/05 02:54:50;;;;;;;18.30;17.60;;;20.90;26.10;;;;;;6274275;22;20373;-73
2022/07/05 02:57:15;;;;;;;19.23;18.33;;;20.30;27.10;;;;;;6274097;22;20381;-73
2022/07/05 02:59:41;;;;;;;17.70;17.10;;;20.10;27.70;;;;;;6274554;22;20245;-73
2022/07/05 03:02:07;;;;;;;18.83;18.10;;;19.90;28.70;;;;;;6273886;22;20159;-73
2022/07/05 03:04:32;;;;;;;19.10;18.40;;;20.20;27.80;;;;;;6274169;22;20166;-73
2022/07/05 03:06:58;;;;;;;18.50;17.83;;;20.50;27.00;;;;;;6274050;22;20213;-74
2022/07/05 03:09:24;;;;;;;19.50;18.77;;;20.60;26.20;;;;;;6274163;22;20204;-73
2022/07/05 03:11:49;;;;;;;19.50;18.70;;;20.60;26.10;;;;;;6273835;22;20154;-74
2022/07/05 03:14:15;;;;;;;19.90;19.10;;;20.60;25.80;;;;;;6273941;22;20186;-73
2022/07/05 03:16:42;;;;;;;19.90;19.00;;;20.70;25.90;;;;;;6274133;22;20151;-73
2022/07/05 03:19:08;;;;;;;19.80;18.70;;;20.70;26.00;;;;;;6274048;22;20610;-74
2022/07/05 03:21:34;;;;;;;18.80;18.07;;;20.60;26.10;;;;;;6273791;22;20377;-73
2022/07/05 03:23:59;;;;;;;19.80;18.63;;;20.70;26.10;;;;;;6273897;22;20381;-73
2022/07/05 03:26:25;;;;;;;18.80;18.10;;;20.60;26.30;;;;;;6273959;22;20158;-73
2022/07/05 03:28:51;;;;;;;18.23;17.40;;;20.50;25.80;;;;;;6273821;22;20186;-73
2022/07/05 03:31:16;;;;;;;18.53;17.83;;;20.50;25.80;;;;;;6273744;22;20151;-73
2022/07/05 03:33:42;;;;;;;19.07;18.37;;;20.60;25.30;;;;;;6275572;22;20571;-73
2022/07/05 03:36:08;;;;;;;19.30;18.40;;;20.60;25.30;;;;;;6273955;22;20155;-73
2022/07/05 03:38:34;;;;;;;19.30;18.50;;;20.60;25.40;;;;;;6273963;22;20378;-73
2022/07/05 03:41:00;;;;;;;19.80;19.00;;;20.00;26.70;;;;;;6273481;22;20392;-73
2022/07/05 03:43:25;;;;;;;19.27;18.47;;;20.00;26.70;;;;;;6273943;22;20154;-73
2022/07/05 03:45:51;;;;;;;19.03;18.33;;;20.20;25.60;;;;;;6273927;22;20158;-73
2022/07/05 03:48:16;;;;;;;18.07;17.37;;;20.30;25.30;;;;;;6273790;22;20342;-74
2022/07/05 03:50:42;;;;;;;18.73;17.70;;;20.30;25.70;;;;;;6273665;22;20527;-73
2022/07/05 03:53:08;;;;;;;19.30;18.50;;;20.20;25.60;;;;;;6275728;22;20225;-73
2022/07/05 03:55:34;;;;;;;19.50;18.70;;;20.10;26.50;;;;;;6275873;22;20491;-73
2022/07/05 03:57:59;;;;;;;19.23;18.50;;;19.40;28.10;;;;;;6275894;22;20158;-73
2022/07/05 04:00:25;;;;;;;19.13;18.43;;;19.30;28.00;;;;;;6275937;22;20178;-73
2022/07/05 04:02:51;;;;;;;18.10;17.37;;;19.60;28.40;;;;;;6275962;22;20161;-73
2022/07/05 04:05:16;;;;;;;19.23;18.53;;;19.90;27.00;;;;;;6276252;22;20169;-74
2022/07/05 04:07:53;;;;;;;19.97;19.17;;;20.00;26.50;;;;;;6275791;22;20235;-73
2022/07/05 04:10:19;;;;;;;19.80;19.00;;;20.00;26.50;;;;;;6275588;22;20624;-74
2022/07/05 04:12:45;;;;;;;19.97;18.90;;;20.10;26.50;;;;;;6275815;22;20377;-73
2022/07/05 04:15:12;;;;;;;19.20;18.40;;;20.20;26.00;;;;;;6275767;22;20392;-73
2022/07/05 04:17:53;;;;;;;19.20;18.50;;;20.30;25.80;;;;;;6275676;22;20842;-73
2022/07/05 04:20:21;;;;;;;19.80;19.10;;;20.30;26.00;;;;;;6275544;22;20761;-73
2022/07/05 04:22:47;;;;;;;19.80;19.00;;;20.30;25.80;;;;;;6275660;22;20396;-73
2022/07/05 04:25:16;;;;;;;20.30;19.50;;;20.10;25.80;;;;;;6275503;22;20722;-73
2022/07/05 04:27:44;;;;;;;19.90;19.20;;;20.10;26.40;;;;;;6275553;22;20421;-73
2022/07/05 04:30:10;;;;;;;20.47;19.47;;;20.10;26.70;;;;;;6275313;22;20767;-73
2022/07/05 04:32:36;;;;;;;19.47;18.67;;;20.30;26.20;;;;;;6275527;22;20435;-73
2022/07/05 04:35:01;;;;;;;19.53;18.83;;;19.70;27.50;;;;;;6275446;22;20370;-73
2022/07/05 04:37:27;;;;;;;20.10;19.00;;;19.80;27.40;;;;;;6275327;22;20161;-73
2022/07/05 04:39:53;;;;;;;19.70;18.90;;;20.00;26.60;;;;;;6275235;22;20592;-73
2022/07/05 04:42:19;;;;;;;18.70;18.00;;;20.20;26.40;;;;;;6275493;22;20423;-73
2022/07/05 04:44:44;;;;;;;20.17;19.27;;;20.30;26.80;;;;;;6275573;22;20162;-73
2022/07/05 04:47:10;;;;;;;18.77;18.07;;;20.30;26.80;;;;;;6275323;22;20189;-73
2022/07/05 04:49:35;;;;;;;20.43;19.53;;;20.40;26.40;;;;;;6275246;22;20175;-73
2022/07/05 04:52:01;;;;;;;19.70;18.60;;;20.30;26.70;;;;;;6275233;22;20178;-73
2022/07/05 04:54:27;;;;;;;20.10;19.23;;;20.20;26.60;;;;;;6275368;22;20485;-73
2022/07/05 04:56:52;;;;;;;20.80;19.70;;;19.90;27.50;;;;;;6275493;22;20488;-73
2022/07/05 04:59:18;;;;;;;18.90;18.20;;;20.20;27.20;;;;;;6275377;22;20159;-73
2022/07/05 05:01:44;;;;;;;19.93;19.13;;;20.30;26.80;;;;;;6275089;22;20151;-73
2022/07/05 05:04:09;;;;;;;18.57;17.97;;;20.40;24.60;;;;;;6275352;22;20200;-73
2022/07/05 05:06:36;;;;;;;18.80;18.10;;;20.40;23.50;;;;;;6275201;22;20203;-73
2022/07/05 05:09:02;;;;;;;18.87;18.17;;;20.40;22.80;;;;;;6275268;22;20487;-74
2022/07/05 05:11:28;;;;;;;18.90;18.20;;;20.50;23.20;;;;;;6276041;22;20381;-73
2022/07/05 05:13:53;;;;;;;17.80;17.00;;;20.60;22.70;;;;;;6275851;22;20155;-73
2022/07/05 05:16:19;;;;;;;18.93;18.20;;;20.60;22.50;;;;;;6275185;22;20155;-73
2022/07/05 05:18:45;;;;;;;18.30;17.60;;;20.60;22.80;;;;;;6275249;22;20155;-73
2022/07/05 05:21:10;;;;;;;18.80;18.10;;;20.50;22.60;;;;;;6274917;22;20599;-73
2022/07/05 05:23:36;;;;;;;17.80;17.20;;;20.60;22.50;;;;;;6275403;22;20151;-73
2022/07/05 05:26:02;;;;;;;18.57;17.80;;;20.50;22.80;;;;;;6275250;22;20166;-74
2022/07/05 05:28:28;;;;;;;19.07;17.90;;;20.60;22.90;;;;;;6275036;22;20666;-73
2022/07/05 05:30:54;;;;;;;18.50;17.80;;;20.60;22.40;;;;;;6274920;22;20776;-73
2022/07/05 05:33:20;;;;;;;18.80;18.10;;;20.70;22.50;;;;;;6275188;22;20238;-73
2022/07/05 05:35:45;;;;;;;19.23;18.33;;;20.70;22.20;;;;;;6274906;22;20377;-73
2022/07/05 05:38:11;;;;;;;19.50;18.70;;;20.70;22.20;;;;;;6274846;22;20158;-74
2022/07/05 05:40:37;;;;;;;19.50;18.80;;;20.70;22.20;;;;;;6274768;22;20155;-73
2022/07/05 05:43:03;;;;;;;18.97;18.27;;;20.80;22.20;;;;;;6274862;22;20155;-73
2022/07/05 05:45:29;;;;;;;18.97;18.37;;;20.80;22.50;;;;;;6274831;22;20473;-73
2022/07/05 05:47:56;;;;;;;19.37;18.60;;;20.80;22.20;;;;;;6274773;22;20174;-73
2022/07/05 05:50:26;;;;;;;19.77;18.77;;;20.80;22.20;;;;;;6274638;22;20178;-73
2022/07/05 05:52:53;;;;;;;18.50;17.90;;;20.90;21.60;;;;;;6274780;22;20706;-74
2022/07/05 05:55:20;;;;;;;18.87;18.17;;;20.90;21.60;;;;;;6274771;22;20431;-73
2022/07/05 05:57:46;;;;;;;18.80;18.00;;;20.90;21.30;;;;;;6274769;22;20382;-73
2022/07/05 06:00:12;;;;;;;18.60;17.90;;;20.90;22.30;;;;;;6274395;22;20385;-73
2022/07/05 06:02:39;;;;;;;19.50;18.70;;;20.90;21.80;;;;;;6274700;22;20155;-73
2022/07/05 06:05:05;;;;;;;18.43;17.73;;;20.90;21.70;;;;;;6274686;22;20463;-73
2022/07/05 06:07:31;;;;;;;18.90;18.20;;;20.80;21.70;;;;;;6274589;22;20416;-73
2022/07/05 06:09:56;;;;;;;18.53;17.83;;;20.80;21.20;;;;;;6274403;22;20747;-73
2022/07/05 06:12:22;;;;;;;18.23;17.43;;;20.90;22.00;;;;;;6274581;22;20154;-73
2022/07/05 06:14:48;;;;;;;18.07;17.37;;;20.90;21.50;;;;;;6274657;22;20154;-73
2022/07/05 06:17:13;;;;;;;19.27;18.27;;;20.90;21.40;;;;;;6273966;22;20487;-73
2022/07/05 06:19:39;;;;;;;19.47;18.27;;;21.00;21.10;;;;;;6274620;22;20230;-73
2022/07/05 06:22:04;;;;;;;18.20;17.50;;;21.00;21.00;;;;;;6274332;22;20601;-73
2022/07/05 06:24:30;;;;;;;18.13;17.43;;;20.80;22.10;;;;;;6274594;22;20159;-74
2022/07/05 06:26:56;;;;;;;18.90;18.07;;;21.00;22.40;;;;;;6276042;22;20219;-73
2022/07/05 06:29:21;;;;;;;19.03;17.97;;;21.00;21.30;;;;;;6274404;22;20170;-74
2022/07/05 06:31:47;;;;;;;17.10;16.50;;;21.00;21.10;;;;;;6274437;22;20205;-73
2022/07/05 06:34:12;;;;;;;18.10;17.50;;;20.90;21.10;;;;;;6274473;22;20158;-73
2022/07/05 06:36:38;;;;;;;18.13;17.47;;;20.90;21.10;;;;;;6274507;22;20181;-73
2022/07/05 06:39:04;;;;;;;18.60;17.97;;;21.00;20.90;;;;;;6274421;22;20182;-73
2022/07/05 06:41:29;;;;;;;18.20;17.60;;;21.10;20.20;;;;;;6274109;22;20150;-73
2022/07/05 06:43:55;;;;;;;19.27;18.33;;;21.10;20.40;;;;;;6274353;22;20155;-73
2022/07/05 06:46:21;;;;;;;19.50;18.70;;;21.10;20.90;;;;;;6274319;22;20165;-73
2022/07/05 06:48:46;;;;;;;17.90;17.20;;;21.20;21.30;;;;;;6274151;22;20177;-73
2022/07/05 06:51:12;;;;;;;18.20;17.50;;;21.30;20.50;;;;;;6274128;22;20174;-74
2022/07/05 06:53:37;;;;;;;18.50;17.43;;;21.30;21.10;;;;;;6274321;22;20161;-73
2022/07/05 06:56:03;;;;;;;18.00;17.30;;;21.30;20.60;;;;;;6274131;22;20209;-73
2022/07/05 06:58:29;;;;;;;18.70;18.00;;;21.30;20.50;;;;;;6274244;22;20555;-73
2022/07/05 07:00:55;;;;;;;18.67;17.97;;;21.40;20.80;;;;;;6275575;22;20373;-73
2022/07/05 07:03:21;;;;;;;17.70;17.10;;;21.30;20.50;;;;;;6274279;22;20257;-73
2022/07/05 07:05:46;;;;;;;17.90;17.30;;;21.30;20.20;;;;;;6274150;22;20155;-73
2022/07/05 07:10:56;;;;;;;17.00;16.40;;;21.30;20.50;;;;;;6275429;22;20142;-73
2022/07/05 07:13:21;;;;;;;17.30;16.70;;;21.50;20.50;;;;;;6274161;22;20377;-73
2022/07/05 07:15:48;;;;;;;17.60;17.00;;;21.50;20.70;;;;;;6274065;22;20603;-73
2022/07/05 07:18:15;;;;;;;17.90;17.00;;;21.60;20.00;;;;;;6273936;22;20204;-73
2022/07/05 07:20:41;;;;;;;17.43;16.83;;;21.70;20.10;;;;;;6273697;22;20396;-73
2022/07/05 07:23:06;;;;;;;17.83;17.23;;;21.70;20.60;;;;;;6273972;22;20755;-73
2022/07/05 07:25:32;;;;;;;17.73;17.10;;;21.80;20.00;;;;;;6273983;22;20381;-73
2022/07/05 07:27:58;;;;;;;16.83;16.13;;;21.70;19.90;;;;;;6273538;22;20634;-73
2022/07/05 07:30:26;;;;;;;17.50;16.80;;;21.70;20.90;;;;;;6273824;22;20249;-73
2022/07/05 07:32:52;;;;;;;17.20;16.60;;;21.80;20.10;;;;;;6273908;22;20151;-73
2022/07/05 07:35:18;;;;;;;17.50;16.80;;;22.00;19.70;;;;;;6275394;22;20368;-73
2022/07/05 07:37:43;;;;;;;17.57;16.97;;;22.20;19.60;;;;;;6273973;22;20713;-73
2022/07/05 07:40:09;;;;;;;17.10;16.40;;;22.30;19.40;;;;;;6273574;22;20595;-73
2022/07/05 07:42:36;;;;;;;16.80;16.03;;;22.30;19.50;;;;;;6273912;22;20158;-73
2022/07/05 07:45:03;;;;;;;16.40;15.70;;;22.20;19.80;;;;;;6273815;22;20404;-73
2022/07/05 07:47:33;;;;;;;15.63;14.93;;;22.30;19.10;;;;;;6273753;22;20424;-73
2022/07/05 07:49:59;;;;;;;16.07;15.47;;;22.30;19.00;;;;;;6273483;22;20528;-73
2022/07/05 07:52:25;;;;;;;16.27;15.50;;;22.40;19.00;;;;;;6273861;22;20381;-74
2022/07/05 07:54:51;;;;;;;17.37;16.67;;;22.50;19.10;;;;;;6273887;22;20439;-73
2022/07/05 07:57:17;;;;;;;18.07;16.97;;;22.40;19.60;;;;;;6273815;22;20161;-73
2022/07/05 07:59:42;;;;;;;15.87;15.33;;;22.40;20.00;;;;;;6273718;22;20155;-73
2022/07/05 08:02:08;;;;;;;16.83;16.03;;;22.50;19.10;;;;;;6273458;22;20389;-73
2022/07/05 08:04:34;;;;;;;17.43;16.67;;;22.60;19.10;;;;;;6273722;22;20158;-74
2022/07/05 08:07:00;;;;;;;17.50;16.80;;;22.60;19.20;;;;;;6275129;22;20547;-74
2022/07/05 08:09:25;;;;;;;17.60;16.80;;;22.50;19.60;;;;;;6273728;22;20200;-73
2022/07/05 08:11:51;;;;;;;18.13;17.40;;;22.50;19.20;;;;;;6275146;22;20142;-73
2022/07/05 08:14:18;;;;;;;17.17;16.57;;;22.50;19.10;;;;;;6273742;22;20233;-73
2022/07/05 08:16:46;;;;;;;17.60;17.00;;;22.50;19.50;;;;;;6273832;22;20523;-73
2022/07/05 08:21:56;;;;;;;17.43;16.83;;;23.00;18.00;;;;;;6276907;22;20437;-74
2022/07/05 08:24:22;;;;;;;18.23;17.40;;;22.90;19.00;;;;;;6273869;22;20409;-74
2022/07/05 08:26:48;;;;;;;17.90;17.20;;;22.90;19.50;;;;;;6273643;22;20154;-74
2022/07/05 08:29:14;;;;;;;18.10;17.40;;;22.80;19.10;;;;;;6273525;22;20249;-74
2022/07/05 08:31:42;;;;;;;17.70;16.80;;;22.80;20.60;;;;;;6273767;22;20194;-73
2022/07/05 08:34:08;;;;;;;17.97;17.33;;;22.80;19.30;;;;;;6273545;22;20374;-74
2022/07/05 08:36:35;;;;;;;18.00;17.03;;;22.80;19.70;;;;;;6273645;22;20473;-73
2022/07/05 08:39:01;;;;;;;16.40;15.80;;;23.00;18.40;;;;;;6273597;22;20373;-73
2022/07/05 08:41:29;;;;;;;18.13;17.07;;;23.00;18.70;;;;;;6274766;22;20430;-73
2022/07/05 08:43:57;;;;;;;16.83;16.13;;;22.90;18.90;;;;;;6275430;22;20402;-74
2022/07/05 08:46:25;;;;;;;17.57;16.63;;;22.90;19.20;;;;;;6275665;22;20543;-74
2022/07/05 08:48:51;;;;;;;16.90;16.20;;;22.90;19.20;;;;;;6275426;22;20512;-74
2022/07/05 08:51:22;;;;;;;17.33;16.73;;;23.00;18.60;;;;;;6275249;22;20692;-74
2022/07/05 08:53:49;;;;;;;17.00;16.40;;;23.00;18.20;;;;;;6275502;22;20385;-74
2022/07/05 08:56:16;;;;;;;17.73;17.13;;;23.00;18.40;;;;;;6275257;22;20374;-74
2022/07/05 08:58:41;;;;;;;17.63;17.03;;;23.00;17.80;;;;;;6275374;22;20472;-73
2022/07/05 09:01:08;;;;;;;17.53;16.70;;;23.10;18.30;;;;;;6275031;22;20408;-73
2022/07/05 09:03:47;;;;;;;17.50;16.73;;;23.10;17.30;;;;;;6275406;22;20523;-73
2022/07/05 09:06:17;;;;;;;17.67;17.07;;;23.00;17.40;;;;;;6275239;22;20381;-74
2022/07/05 09:08:43;;;;;;;17.20;16.53;;;23.10;18.20;;;;;;6275289;22;20866;-73
2022/07/05 09:11:14;;;;;;;16.90;16.30;;;23.10;19.50;;;;;;6274989;22;20378;-73
2022/07/05 09:13:42;;;;;;;16.17;15.57;;;23.10;16.30;;;;;;6275443;22;20189;-74
2022/07/05 09:16:08;;;;;;;17.30;16.60;;;23.10;15.70;;;;;;6275252;22;20389;-73
2022/07/05 09:18:40;;;;;;;16.97;16.00;;;23.60;15.50;;;;;;6275104;22;20417;-73
2022/07/05 09:21:27;;;;;;;17.20;16.60;;;24.20;16.10;;;;;;6274883;22;20862;-73
2022/07/05 09:23:55;;;;;;;17.10;16.50;;;24.20;15.40;;;;;;6275150;22;20841;-73
2022/07/05 09:26:21;;;;;;;16.87;16.17;;;23.90;15.70;;;;;;6275696;22;20520;-72
2022/07/05 09:28:57;;;;;;;17.60;17.00;;;23.80;16.10;;;;;;6276878;22;20421;-73
2022/07/05 09:31:28;;;;;;;16.50;15.90;;;24.00;16.20;;;;;;6275308;22;20746;-72
2022/07/05 09:33:54;;;;;;;16.77;16.07;;;23.80;15.70;;;;;;6275362;22;20382;-72
2022/07/05 09:36:20;;;;;;;16.37;15.77;;;23.70;15.00;;;;;;6277328;22;20369;-72
2022/07/05 09:38:51;;;;;;;16.60;16.00;;;23.70;17.10;;;;;;6275119;22;20159;-73
2022/07/05 09:41:17;;;;;;;16.83;16.23;;;23.60;16.90;;;;;;6276879;22;20220;-73
2022/07/05 09:43:44;;;;;;;17.20;16.43;;;23.60;16.50;;;;;;6276331;22;20377;-73
2022/07/05 09:46:09;;;;;;;17.27;16.37;;;23.70;17.10;;;;;;6275137;22;20159;-73
2022/07/05 09:48:35;;;;;;;17.47;16.87;;;24.20;15.50;;;;;;6275207;22;20424;-73
2022/07/05 09:51:05;;;;;;;16.50;15.90;;;24.40;14.80;;;;;;6276514;22;20564;-73
2022/07/05 09:53:48;;;;;;;17.10;16.13;;;24.20;13.70;;;;;;6275137;22;20181;-73
2022/07/05 09:56:15;;;;;;;17.60;16.97;;;24.20;14.40;;;;;;6275261;22;20439;-73
2022/07/05 09:58:41;;;;;;;16.90;16.20;;;24.30;14.10;;;;;;6275301;22;20424;-73
2022/07/05 10:01:27;;;;;;;15.90;15.40;;;24.40;13.30;;;;;;6274839;22;20709;-72
2022/07/05 10:03:58;;;;;;;16.00;15.50;;;24.60;13.00;;;;;;6274873;22;20408;-73
2022/07/05 10:06:25;;;;;;;17.47;16.67;;;24.80;13.90;;;;;;6274966;22;20703;-73
2022/07/05 10:08:53;;;;;;;16.93;16.20;;;24.90;13.70;;;;;;6276677;22;20541;-73
2022/07/05 10:11:19;;;;;;;16.87;16.27;;;24.90;11.50;;;;;;6274784;22;20377;-73
2022/07/05 10:13:50;;;;;;;17.53;16.73;;;25.10;9.90;;;;;;6275374;22;20419;-74
2022/07/05 10:16:17;;;;;;;17.80;16.77;;;25.30;11.70;;;;;;6275193;22;20381;-73
2022/07/05 10:18:48;;;;;;;16.20;15.70;;;25.40;11.90;;;;;;6275063;22;20428;-73
2022/07/05 10:21:15;;;;;;;17.03;16.30;;;25.50;9.30;;;;;;6274691;22;20376;-73
2022/07/05 10:23:53;;;;;;;16.10;15.50;;;25.50;9.60;;;;;;6276943;22;20368;-72
2022/07/05 10:26:20;;;;;;;16.00;15.43;;;25.70;9.30;;;;;;6275302;22;20374;-73
2022/07/05 10:28:51;;;;;;;16.17;15.47;;;25.70;9.50;;;;;;6275017;22;20437;-73
2022/07/05 10:31:17;;;;;;;17.97;16.90;;;25.70;9.70;;;;;;6274879;22;20384;-72
2022/07/05 10:33:44;;;;;;;15.57;15.07;;;26.10;10.60;;;;;;6275339;22;20392;-73
2022/07/05 10:36:11;;;;;;;15.97;15.40;;;26.00;10.10;;;;;;6275353;22;20735;-73
2022/07/05 10:38:43;;;;;;;16.83;15.80;;;26.00;10.70;;;;;;6275534;22;20468;-73
2022/07/05 10:41:18;;;;;;;16.30;15.70;;;26.10;10.30;;;;;;6275195;22;20727;-73
2022/07/05 10:43:44;;;;;;;15.70;15.10;;;26.20;11.00;;;;;;6275149;22;20373;-73
2022/07/05 10:46:10;;;;;;;15.50;14.90;;;26.20;9.80;;;;;;6275216;22;20385;-73
2022/07/05 10:48:36;;;;;;;15.60;15.00;;;26.10;10.90;;;;;;6275236;22;20209;-73
2022/07/05 10:51:17;;;;;;;15.90;15.40;;;26.30;10.00;;;;;;6274963;22;20857;-73
2022/07/05 10:53:43;;;;;;;16.10;15.50;;;26.30;9.40;;;;;;6275144;22;20147;-73
2022/07/05 10:56:12;;;;;;;17.27;16.57;;;26.30;9.50;;;;;;6276604;22;20374;-73
2022/07/05 10:58:39;;;;;;;16.33;15.63;;;26.20;9.40;;;;;;6274799;22;20903;-73
2022/07/05 11:01:19;;;;;;;16.40;15.70;;;26.30;9.20;;;;;;6276433;22;20413;-73
2022/07/05 11:04:01;;;;;;;16.17;15.57;;;26.10;9.50;;;;;;6274655;22;20439;-73
2022/07/05 11:06:41;;;;;;;15.60;15.10;;;25.90;9.30;;;;;;6274922;22;20795;-73
2022/07/05 11:09:10;;;;;;;16.20;15.40;;;25.90;9.50;;;;;;6274727;22;20485;-73
2022/07/05 11:11:41;;;;;;;15.57;14.97;;;25.80;9.30;;;;;;6274621;22;20439;-72
2022/07/05 11:14:19;;;;;;;15.90;15.00;;;26.10;9.10;;;;;;6274816;22;20369;-73
2022/07/05 11:16:45;;;;;;;15.50;15.00;;;25.80;9.80;;;;;;6274580;22;20382;-72
2022/07/05 11:19:17;;;;;;;15.10;14.60;;;25.90;9.00;;;;;;6274675;22;20377;-73
2022/07/05 11:22:05;;;;;;;16.13;15.13;;;25.90;9.90;;;;;;6274719;22;20423;-73
2022/07/05 11:24:35;;;;;;;15.63;15.13;;;25.80;10.50;;;;;;6274629;22;20870;-72
2022/07/05 11:27:09;;;;;;;16.33;15.47;;;26.00;10.70;;;;;;6274367;22;20365;-73
2022/07/05 11:29:52;;;;;;;15.77;15.10;;;26.00;10.50;;;;;;6275467;22;20858;-72
2022/07/05 11:32:30;;;;;;;15.90;15.30;;;25.80;9.70;;;;;;6277834;22;20365;-73
2022/07/05 11:35:15;;;;;;;16.90;16.10;;;26.10;8.60;;;;;;6275039;22;20853;-73
2022/07/05 11:38:03;;;;;;;16.50;15.73;;;25.90;10.90;;;;;;6274513;22;20373;-73
2022/07/05 11:40:30;;;;;;;16.30;15.70;;;25.70;10.10;;;;;;6274352;22;20377;-73
2022/07/05 11:42:55;;;;;;;16.30;15.80;;;25.50;10.70;;;;;;6274766;22;20373;-73
2022/07/05 11:45:21;;;;;;;16.30;15.63;;;25.50;10.70;;;;;;6274390;22;20395;-73
2022/07/05 11:47:47;;;;;;;16.00;15.30;;;25.40;10.70;;;;;;6274827;22;20170;-73
2022/07/05 11:50:13;;;;;;;15.07;14.33;;;25.40;10.90;;;;;;6274671;22;20162;-73
2022/07/05 11:52:41;;;;;;;15.70;14.80;;;25.30;11.10;;;;;;6274388;22;20153;-73
2022/07/05 11:55:08;;;;;;;15.20;14.70;;;25.30;11.50;;;;;;6274447;22;20377;-73
2022/07/05 11:57:34;;;;;;;16.50;15.90;;;25.20;11.10;;;;;;6274395;22;20901;-73
2022/07/05 12:00:00;;;;;;;16.00;15.30;;;25.20;11.00;;;;;;6274125;22;20452;-73
2022/07/05 12:02:26;;;;;;;16.50;15.80;;;25.30;11.20;;;;;;6274608;22;20160;-73
2022/07/05 12:04:54;;;;;;;16.07;15.37;;;25.30;10.60;;;;;;6274408;22;20170;-73
2022/07/05 12:07:31;;;;;;;16.33;15.63;;;25.80;10.50;;;;;;6274160;22;20171;-73
2022/07/05 12:12:45;;;;;;;16.50;15.90;;;25.70;10.50;;;;;;6276074;22;20399;-73
2022/07/05 12:15:11;;;;;;;16.67;16.07;;;25.50;10.60;;;;;;6277247;22;20381;-73
2022/07/05 12:17:38;;;;;;;17.27;16.33;;;25.50;10.60;;;;;;6276369;22;20377;-73
2022/07/05 12:20:08;;;;;;;16.23;15.73;;;25.40;10.80;;;;;;6276013;22;20385;-73
2022/07/05 12:22:37;;;;;;;17.33;16.53;;;25.40;12.40;;;;;;6276357;22;20389;-73
2022/07/05 12:25:05;;;;;;;16.20;15.60;;;25.30;11.60;;;;;;6276342;22;20853;-73
2022/07/05 12:27:37;;;;;;;16.37;15.50;;;25.30;12.80;;;;;;6276510;22;20471;-73
2022/07/05 12:30:11;;;;;;;16.40;15.80;;;25.30;11.80;;;;;;6276611;22;20443;-73
2022/07/05 12:33:06;;;;;;;17.23;16.47;;;25.60;10.90;;;;;;6276466;22;20916;-73
2022/07/05 12:35:33;;;;;;;15.37;14.80;;;25.50;11.70;;;;;;6277929;22;20802;-73
2022/07/05 12:38:18;;;;;;;16.50;16.00;;;25.40;11.50;;;;;;6276131;22;20380;-73
2022/07/05 12:40:47;;;;;;;16.30;15.80;;;25.30;11.50;;;;;;6276184;22;20381;-73